createdAt,value
2018-08-09T00:00:27.926Z,96.20
2018-08-09T00:02:56.445Z,96.20
2018-08-09T00:05:24.859Z,96.20
2018-08-09T00:07:59.944Z,96.20
2018-08-09T00:10:28.429Z,96.30
2018-08-09T00:12:56.829Z,96.70
2018-08-09T00:15:25.281Z,97.00
2018-08-09T00:17:53.642Z,96.90
2018-08-09T00:20:21.988Z,97.10
2018-08-09T00:22:50.421Z,97.20
2018-08-09T00:25:18.864Z,97.30
2018-08-09T00:27:47.206Z,97.50
2018-08-09T00:30:15.594Z,97.70
2018-08-09T00:32:44.060Z,97.80
2018-08-09T00:35:12.463Z,97.70
2018-08-09T00:37:41.008Z,97.70
2018-08-09T00:40:09.516Z,97.70
2018-08-09T00:42:37.979Z,97.50
2018-08-09T00:45:06.813Z,97.60
2018-08-09T00:47:35.272Z,97.50
2018-08-09T00:50:03.827Z,97.80
2018-08-09T00:52:32.250Z,97.90
2018-08-09T00:55:00.648Z,98.10
2018-08-09T00:57:29.049Z,97.80
2018-08-09T00:59:57.422Z,98.30
2018-08-09T01:02:25.919Z,98.10
2018-08-09T01:04:54.390Z,98.30
2018-08-09T01:07:22.839Z,98.00
2018-08-09T01:09:51.196Z,97.60
2018-08-09T01:12:19.639Z,97.20
2018-08-09T01:14:48.136Z,97.60
2018-08-09T01:17:16.524Z,97.70
2018-08-09T01:19:44.990Z,97.70
2018-08-09T01:22:13.414Z,97.70
2018-08-09T01:24:41.816Z,97.60
2018-08-09T01:27:10.277Z,98.00
2018-08-09T01:29:39.930Z,98.50
2018-08-09T01:32:08.306Z,98.60
2018-08-09T01:34:36.724Z,98.40
2018-08-09T01:37:05.111Z,98.20
2018-08-09T01:39:33.664Z,98.00
2018-08-09T01:42:13.410Z,98.20
2018-08-09T01:44:41.883Z,98.60
2018-08-09T01:47:10.342Z,98.50
2018-08-09T01:49:38.775Z,98.50
2018-08-09T01:52:07.200Z,98.40
2018-08-09T01:54:35.584Z,98.40
2018-08-09T01:57:04.005Z,98.40
2018-08-09T01:59:32.483Z,98.10
2018-08-09T02:02:00.976Z,98.10
2018-08-09T02:04:29.402Z,98.10
2018-08-09T02:06:57.916Z,98.30
2018-08-09T02:09:32.483Z,98.50
2018-08-09T02:12:01.747Z,98.30
2018-08-09T02:14:30.153Z,98.50
2018-08-09T02:16:58.757Z,98.50
2018-08-09T02:19:27.130Z,99.10
2018-08-09T02:21:55.590Z,99.20
2018-08-09T02:24:24.068Z,98.90
2018-08-09T02:26:52.478Z,98.80
2018-08-09T02:29:20.951Z,99.00
2018-08-09T02:31:49.379Z,98.70
2018-08-09T02:34:17.971Z,98.50
2018-08-09T02:36:50.483Z,98.40
2018-08-09T02:39:18.854Z,98.60
2018-08-09T02:41:47.307Z,98.40
2018-08-09T02:44:15.791Z,98.80
2018-08-09T02:46:44.248Z,98.60
2018-08-09T02:49:12.599Z,98.90
2018-08-09T02:51:41.083Z,99.10
2018-08-09T02:54:09.479Z,98.80
2018-08-09T02:56:37.868Z,98.40
2018-08-09T02:59:06.326Z,98.50
2018-08-09T03:01:34.719Z,98.40
2018-08-09T03:04:03.094Z,98.80
2018-08-09T03:06:31.547Z,98.80
2018-08-09T03:08:59.924Z,98.90
2018-08-09T03:11:28.309Z,99.10
2018-08-09T03:13:56.712Z,98.90
2018-08-09T03:16:25.152Z,99.10
2018-08-09T03:18:53.590Z,99.10
2018-08-09T03:21:21.995Z,98.90
2018-08-09T03:23:50.375Z,99.00
2018-08-09T03:26:18.779Z,98.90
2018-08-09T03:28:47.117Z,98.80
2018-08-09T03:31:15.532Z,99.00
2018-08-09T03:33:43.947Z,98.90
2018-08-09T03:36:12.310Z,98.90
2018-08-09T03:38:40.736Z,99.20
2018-08-09T03:41:09.155Z,99.30
2018-08-09T03:43:37.720Z,99.10
2018-08-09T03:46:06.208Z,99.00
2018-08-09T03:48:34.638Z,99.20
2018-08-09T03:51:03.149Z,99.20
2018-08-09T03:53:31.732Z,98.90
2018-08-09T03:56:00.151Z,99.00
2018-08-09T03:58:28.548Z,98.70
2018-08-09T04:00:56.968Z,99.00
2018-08-09T04:03:25.365Z,98.70
2018-08-09T04:05:53.832Z,98.50
2018-08-09T04:08:22.215Z,98.40
2018-08-09T04:10:50.826Z,98.60
2018-08-09T04:13:19.304Z,98.80
2018-08-09T04:15:47.789Z,98.80
2018-08-09T04:18:16.245Z,98.70
2018-08-09T04:20:44.695Z,98.60
2018-08-09T04:23:13.248Z,98.70
2018-08-09T04:25:41.630Z,98.60
2018-08-09T04:28:09.991Z,98.40
2018-08-09T04:30:38.546Z,98.20
2018-08-09T04:33:07.056Z,98.30
2018-08-09T04:35:35.611Z,98.10
2018-08-09T04:38:04.185Z,98.10
2018-08-09T04:40:32.891Z,98.10
2018-08-09T04:43:01.369Z,98.00
2018-08-09T04:45:29.851Z,97.80
2018-08-09T04:47:58.363Z,97.60
2018-08-09T04:50:26.741Z,97.00
2018-08-09T04:52:55.117Z,96.30
2018-08-09T04:55:23.674Z,96.20
2018-08-09T04:57:52.062Z,96.20
2018-08-09T05:00:20.527Z,95.80
2018-08-09T05:02:48.877Z,95.80
2018-08-09T05:05:17.370Z,95.70
2018-08-09T05:07:45.974Z,95.70
2018-08-09T05:10:14.399Z,95.70
2018-08-09T05:12:43.175Z,95.80
2018-08-09T05:15:12.336Z,95.60
2018-08-09T05:17:40.833Z,95.50
2018-08-09T05:20:09.255Z,95.20
2018-08-09T05:22:37.651Z,95.20
2018-08-09T05:25:06.479Z,95.10
2018-08-09T05:27:34.862Z,95.10
2018-08-09T05:30:03.537Z,95.10
2018-08-09T05:32:32.048Z,94.80
2018-08-09T05:35:00.603Z,94.30
2018-08-09T05:37:29.121Z,94.50
2018-08-09T05:39:57.773Z,94.00
2018-08-09T05:42:26.168Z,93.80
2018-08-09T05:44:54.647Z,93.70
2018-08-09T05:47:23.069Z,93.20
2018-08-09T05:49:51.504Z,93.10
2018-08-09T05:52:19.926Z,92.90
2018-08-09T05:54:48.283Z,92.50
2018-08-09T05:57:16.699Z,92.40
2018-08-09T05:59:45.103Z,92.10
2018-08-09T06:02:13.594Z,91.60
2018-08-09T06:04:42.076Z,91.80
2018-08-09T06:07:11.110Z,91.30
2018-08-09T06:09:39.480Z,90.70
2018-08-09T06:12:07.872Z,90.50
2018-08-09T06:14:36.352Z,90.40
2018-08-09T06:17:04.734Z,90.50
2018-08-09T06:19:33.382Z,90.10
2018-08-09T06:22:01.771Z,90.10
2018-08-09T06:24:30.340Z,89.60
2018-08-09T06:26:59.282Z,89.30
2018-08-09T06:29:27.916Z,89.20
2018-08-09T06:31:56.426Z,88.80
2018-08-09T06:34:24.821Z,88.00
2018-08-09T06:36:53.360Z,88.40
2018-08-09T06:39:21.872Z,88.40
2018-08-09T06:41:50.540Z,87.50
2018-08-09T06:44:18.942Z,86.70
2018-08-09T06:46:47.332Z,86.10
2018-08-09T06:49:15.878Z,85.80
2018-08-09T06:51:44.262Z,86.10
2018-08-09T06:54:12.680Z,85.60
2018-08-09T06:56:41.141Z,85.20
2018-08-09T06:59:09.521Z,85.60
2018-08-09T07:01:37.973Z,85.30
2018-08-09T07:04:06.379Z,85.10
2018-08-09T07:06:34.935Z,85.30
2018-08-09T07:09:03.588Z,84.20
2018-08-09T07:11:32.006Z,83.70
2018-08-09T07:14:00.419Z,82.80
2018-08-09T07:16:28.894Z,82.60
2018-08-09T07:18:57.287Z,82.40
2018-08-09T07:21:25.639Z,83.10
2018-08-09T07:23:54.025Z,83.00
2018-08-09T07:26:22.676Z,82.60
2018-08-09T07:28:51.643Z,82.60
2018-08-09T07:31:20.074Z,82.10
2018-08-09T07:33:48.512Z,81.80
2018-08-09T07:36:17.124Z,80.80
2018-08-09T07:38:45.567Z,80.20
2018-08-09T07:41:14.402Z,80.50
2018-08-09T07:43:42.871Z,80.50
2018-08-09T07:46:11.252Z,80.10
2018-08-09T07:48:39.694Z,80.10
2018-08-09T07:51:08.242Z,80.20
2018-08-09T07:53:36.623Z,79.40
2018-08-09T07:56:04.989Z,79.20
2018-08-09T07:58:33.405Z,77.70
2018-08-09T08:01:01.888Z,78.70
2018-08-09T08:03:30.843Z,78.90
2018-08-09T08:05:59.286Z,77.70
2018-08-09T08:08:27.723Z,78.10
2018-08-09T08:10:56.122Z,78.10
2018-08-09T08:13:24.600Z,76.80
2018-08-09T08:15:53.155Z,77.40
2018-08-09T08:18:21.594Z,77.00
2018-08-09T08:20:50.049Z,77.70
2018-08-09T08:23:18.511Z,77.80
2018-08-09T08:25:46.861Z,76.90
2018-08-09T08:28:15.284Z,75.80
2018-08-09T08:30:43.744Z,76.20
2018-08-09T08:33:12.408Z,75.80
2018-08-09T08:35:40.787Z,74.40
2018-08-09T08:38:09.401Z,74.60
2018-08-09T08:40:37.829Z,75.30
2018-08-09T08:43:06.440Z,75.70
2018-08-09T08:45:34.807Z,75.00
2018-08-09T08:48:03.244Z,74.60
2018-08-09T08:50:31.647Z,74.70
2018-08-09T08:53:00.185Z,74.90
2018-08-09T08:55:28.611Z,75.40
2018-08-09T08:57:57.030Z,75.10
2018-08-09T09:00:25.484Z,74.20
2018-08-09T09:02:53.829Z,73.70
2018-08-09T09:05:22.275Z,74.00
2018-08-09T09:07:50.698Z,74.90
2018-08-09T09:10:19.113Z,73.80
2018-08-09T09:12:47.722Z,74.00
2018-08-09T09:15:16.420Z,72.70
2018-08-09T09:17:45.191Z,73.00
2018-08-09T09:20:15.123Z,73.10
2018-08-09T09:22:44.061Z,73.60
2018-08-09T09:25:13.133Z,73.40
2018-08-09T09:27:41.567Z,72.70
2018-08-09T09:30:17.031Z,73.40
2018-08-09T09:32:45.793Z,72.60
2018-08-09T09:35:14.391Z,71.60
2018-08-09T09:37:43.261Z,70.30
2018-08-09T09:40:11.683Z,69.90
2018-08-09T09:42:40.239Z,70.70
2018-08-09T09:45:09.698Z,69.90
2018-08-09T09:47:38.082Z,70.60
2018-08-09T09:50:08.122Z,69.50
2018-08-09T09:52:36.508Z,68.90
2018-08-09T09:55:05.431Z,68.00
2018-08-09T09:57:33.994Z,67.80
2018-08-09T10:00:02.511Z,67.00
2018-08-09T10:02:30.994Z,64.80
2018-08-09T10:04:59.541Z,64.40
2018-08-09T10:07:28.008Z,62.20
2018-08-09T10:09:56.427Z,63.00
2018-08-09T10:12:24.885Z,62.80
2018-08-09T10:14:53.343Z,61.50
2018-08-09T10:17:21.862Z,61.80
2018-08-09T10:19:50.330Z,60.30
2018-08-09T10:22:18.649Z,58.50
2018-08-09T10:24:47.063Z,58.50
2018-08-09T10:27:15.458Z,58.30
2018-08-09T10:29:43.801Z,56.90
2018-08-09T10:32:12.200Z,57.30
2018-08-09T10:34:40.594Z,57.20
2018-08-09T10:37:09.014Z,55.80
2018-08-09T10:39:37.477Z,55.50
2018-08-09T10:42:05.906Z,54.60
2018-08-09T10:44:34.429Z,55.00
2018-08-09T10:47:02.780Z,53.90
2018-08-09T10:49:31.268Z,54.10
2018-08-09T10:51:59.632Z,53.70
2018-08-09T10:54:28.027Z,53.40
2018-08-09T10:56:56.553Z,53.50
2018-08-09T10:59:24.973Z,52.10
2018-08-09T11:01:53.403Z,52.30
2018-08-09T11:04:21.870Z,51.90
2018-08-09T11:06:50.389Z,51.30
2018-08-09T11:09:18.827Z,50.60
2018-08-09T11:11:47.239Z,50.90
2018-08-09T11:14:15.695Z,50.90
2018-08-09T11:16:44.073Z,50.70
2018-08-09T11:19:12.470Z,50.50
2018-08-09T11:21:41.040Z,50.90
2018-08-09T11:24:09.413Z,50.20
2018-08-09T11:26:37.806Z,49.80
2018-08-09T11:29:06.486Z,50.10
2018-08-09T11:31:34.874Z,50.20
2018-08-09T11:34:03.617Z,50.10
2018-08-09T11:36:32.024Z,49.60
2018-08-09T11:39:00.430Z,49.20
2018-08-09T11:41:28.995Z,48.00
2018-08-09T11:43:57.374Z,48.50
2018-08-09T11:46:25.770Z,49.20
2018-08-09T11:48:54.567Z,48.40
2018-08-09T11:51:22.933Z,48.60
2018-08-09T11:53:51.430Z,48.90
2018-08-09T11:56:19.852Z,49.50
2018-08-09T11:58:48.318Z,49.10
2018-08-09T12:01:16.719Z,48.80
2018-08-09T12:03:45.235Z,49.50
2018-08-09T12:06:13.687Z,48.30
2018-08-09T12:08:42.221Z,49.20
2018-08-09T12:11:10.619Z,49.10
2018-08-09T12:13:39.130Z,48.70
2018-08-09T12:16:07.582Z,48.50
2018-08-09T12:18:36.019Z,48.80
2018-08-09T12:21:04.570Z,49.00
2018-08-09T12:23:32.995Z,48.90
2018-08-09T12:26:01.456Z,49.00
2018-08-09T12:28:29.871Z,49.20
2018-08-09T12:30:58.296Z,48.50
2018-08-09T12:33:26.701Z,48.30
2018-08-09T12:35:55.119Z,48.20
2018-08-09T12:38:23.557Z,48.10
2018-08-09T12:40:51.960Z,48.70
2018-08-09T12:43:20.432Z,48.40
2018-08-09T12:45:49.007Z,47.60
2018-08-09T12:48:17.519Z,48.10
2018-08-09T12:50:45.987Z,48.20
2018-08-09T12:53:14.488Z,48.20
2018-08-09T12:55:42.931Z,48.50
2018-08-09T12:58:11.444Z,49.20
2018-08-09T13:00:39.877Z,49.70
2018-08-09T13:03:08.733Z,49.60
2018-08-09T13:05:37.086Z,49.90
2018-08-09T13:08:05.751Z,49.90
2018-08-09T13:10:34.182Z,49.40
2018-08-09T13:13:02.588Z,49.70
2018-08-09T13:15:31.219Z,49.70
2018-08-09T13:17:59.617Z,49.40
2018-08-09T13:20:27.995Z,49.40
2018-08-09T13:22:56.437Z,50.30
2018-08-09T13:25:24.893Z,50.40
2018-08-09T13:27:53.290Z,49.60
2018-08-09T13:30:21.743Z,49.60
2018-08-09T13:32:50.140Z,49.70
2018-08-09T13:35:18.533Z,49.80
2018-08-09T13:37:46.903Z,49.80
2018-08-09T13:40:15.396Z,49.30
2018-08-09T13:42:43.826Z,49.30
2018-08-09T13:45:14.528Z,49.30
2018-08-09T13:47:43.185Z,49.00
2018-08-09T13:50:12.441Z,49.20
2018-08-09T13:52:41.570Z,49.30
2018-08-09T13:55:11.370Z,50.40
2018-08-09T13:57:39.738Z,49.80
2018-08-09T14:00:10.059Z,49.90
2018-08-09T14:02:38.434Z,49.40
2018-08-09T14:05:07.608Z,49.20
2018-08-09T14:07:36.174Z,49.10
2018-08-09T14:10:05.162Z,49.10
2018-08-09T14:12:33.663Z,49.00
2018-08-09T14:15:02.076Z,48.70
2018-08-09T14:17:30.538Z,48.30
2018-08-09T14:19:59.102Z,47.80
2018-08-09T14:22:27.515Z,47.40
2018-08-09T14:24:56.069Z,47.20
2018-08-09T14:27:24.653Z,47.20
2018-08-09T14:29:53.072Z,47.20
2018-08-09T14:32:21.510Z,47.30
2018-08-09T14:34:49.949Z,47.20
2018-08-09T14:37:18.401Z,47.50
2018-08-09T14:39:46.757Z,47.80
2018-08-09T14:42:15.296Z,48.50
2018-08-09T14:44:43.743Z,48.00
2018-08-09T14:47:12.122Z,48.20
2018-08-09T14:49:40.816Z,48.90
2018-08-09T14:52:09.470Z,48.30
2018-08-09T14:54:38.144Z,48.30
2018-08-09T14:57:06.591Z,48.40
2018-08-09T14:59:35.222Z,48.40
2018-08-09T15:02:03.651Z,48.90
2018-08-09T15:04:32.064Z,49.00
2018-08-09T15:07:00.479Z,48.40
2018-08-09T15:09:29.029Z,48.00
2018-08-09T15:11:57.622Z,48.30
2018-08-09T15:14:26.156Z,46.90
2018-08-09T15:16:54.578Z,47.40
2018-08-09T15:19:23.165Z,47.30
2018-08-09T15:21:51.574Z,47.10
2018-08-09T15:24:19.999Z,46.70
2018-08-09T15:26:48.458Z,47.30
2018-08-09T15:29:17.247Z,47.30
2018-08-09T15:31:45.693Z,46.40
2018-08-09T15:34:14.119Z,47.10
2018-08-09T15:36:42.614Z,47.50
2018-08-09T15:39:13.324Z,47.20
2018-08-09T15:41:43.005Z,47.70
2018-08-09T15:44:12.439Z,46.70
2018-08-09T15:46:40.842Z,45.60
2018-08-09T15:49:09.364Z,45.50
2018-08-09T15:51:37.959Z,45.30
2018-08-09T15:54:06.368Z,45.60
2018-08-09T15:56:34.924Z,45.80
2018-08-09T15:59:03.396Z,46.20
2018-08-09T16:01:31.864Z,46.30
2018-08-09T16:04:00.243Z,46.50
2018-08-09T16:06:28.952Z,46.10
2018-08-09T16:08:57.362Z,46.50
2018-08-09T16:11:25.758Z,46.00
2018-08-09T16:13:54.229Z,46.50
2018-08-09T16:16:22.735Z,46.30
2018-08-09T16:18:51.113Z,46.50
2018-08-09T16:21:19.527Z,46.30
2018-08-09T16:23:47.984Z,45.90
2018-08-09T16:26:16.411Z,46.20
2018-08-09T16:28:44.835Z,46.60
2018-08-09T16:31:13.364Z,46.70
2018-08-09T16:33:41.837Z,46.70
2018-08-09T16:36:10.251Z,46.90
2018-08-09T16:38:38.629Z,47.40
2018-08-09T16:41:07.083Z,47.50
2018-08-09T16:43:35.586Z,47.60
2018-08-09T16:46:04.148Z,47.70
2018-08-09T16:48:32.593Z,48.00
2018-08-09T16:51:01.023Z,47.90
2018-08-09T16:53:29.488Z,48.10
2018-08-09T16:55:57.895Z,49.00
2018-08-09T16:58:26.283Z,48.20
2018-08-09T17:00:54.726Z,48.40
2018-08-09T17:03:23.181Z,48.70
2018-08-09T17:05:51.546Z,49.10
2018-08-09T17:08:19.983Z,48.80
2018-08-09T17:10:48.479Z,49.40
2018-08-09T17:13:16.896Z,49.50
2018-08-09T17:15:45.281Z,49.70
2018-08-09T17:18:13.686Z,49.90
2018-08-09T17:20:42.152Z,50.10
2018-08-09T17:23:10.595Z,50.00
2018-08-09T17:25:39.082Z,50.00
2018-08-09T17:28:07.550Z,50.00
2018-08-09T17:30:35.946Z,50.10
2018-08-09T17:33:04.381Z,50.40
2018-08-09T17:35:32.816Z,50.50
2018-08-09T17:38:01.239Z,50.30
2018-08-09T17:40:32.332Z,50.20
2018-08-09T17:43:01.526Z,50.10
2018-08-09T17:45:31.547Z,50.80
2018-08-09T17:48:00.369Z,50.70
2018-08-09T17:50:28.948Z,51.20
2018-08-09T17:52:59.109Z,50.80
2018-08-09T17:55:27.853Z,50.90
2018-08-09T17:57:56.340Z,50.90
2018-08-09T18:00:26.336Z,51.20
2018-08-09T18:02:54.970Z,51.00
2018-08-09T18:05:23.624Z,50.80
2018-08-09T18:07:52.623Z,50.60
2018-08-09T18:10:24.069Z,50.60
2018-08-09T18:12:52.662Z,51.10
2018-08-09T18:15:21.920Z,53.30
2018-08-09T18:17:50.582Z,54.30
2018-08-09T18:20:20.544Z,54.60
2018-08-09T18:22:48.967Z,55.00
2018-08-09T18:25:17.433Z,55.30
2018-08-09T18:27:46.106Z,56.20
2018-08-09T18:30:16.595Z,56.60
2018-08-09T18:32:45.422Z,57.10
2018-08-09T18:35:15.002Z,57.70
2018-08-09T18:37:43.491Z,57.90
2018-08-09T18:40:15.639Z,58.20
2018-08-09T18:42:44.160Z,58.40
2018-08-09T18:45:12.760Z,58.70
2018-08-09T18:47:41.447Z,58.90
2018-08-09T18:50:15.961Z,59.10
2018-08-09T18:52:44.470Z,59.40
2018-08-09T18:55:13.954Z,59.80
2018-08-09T18:57:42.625Z,60.20
2018-08-09T19:00:18.194Z,60.40
2018-08-09T19:02:47.296Z,60.40
2018-08-09T19:05:15.964Z,60.60
2018-08-09T19:07:44.613Z,61.00
2018-08-09T19:10:20.717Z,61.10
2018-08-09T19:12:49.335Z,61.20
2018-08-09T19:15:18.000Z,61.50
2018-08-09T19:17:46.421Z,61.70
2018-08-09T19:20:18.242Z,61.90
2018-08-09T19:22:46.851Z,62.10
2018-08-09T19:25:15.526Z,62.30
2018-08-09T19:27:44.119Z,62.60
2018-08-09T19:30:13.704Z,62.80
2018-08-09T19:32:42.365Z,63.30
2018-08-09T19:35:13.404Z,63.30
2018-08-09T19:37:42.375Z,63.50
2018-08-09T19:40:12.429Z,65.10
2018-08-09T19:42:41.150Z,65.50
2018-08-09T19:45:14.260Z,65.80
2018-08-09T19:47:42.657Z,68.20
2018-08-09T19:50:13.149Z,68.90
2018-08-09T19:57:59.788Z,70.20
2018-08-09T20:00:29.616Z,69.60
2018-08-09T20:02:58.094Z,69.40
2018-08-09T20:05:26.658Z,69.60
2018-08-09T20:07:55.441Z,68.20
2018-08-09T20:10:24.200Z,67.10
2018-08-09T20:12:52.661Z,65.10
2018-08-09T20:15:22.333Z,66.40
2018-08-09T20:17:50.850Z,63.80
2018-08-09T20:20:20.919Z,63.20
2018-08-09T20:22:49.319Z,63.10
2018-08-09T20:25:17.822Z,63.50
2018-08-09T20:27:47.177Z,64.40
2018-08-09T20:30:16.546Z,64.40
2018-08-09T20:32:45.711Z,64.60
2018-08-09T20:35:16.767Z,63.90
2018-08-09T20:37:46.103Z,63.60
2018-08-09T20:40:15.194Z,64.10
2018-08-09T20:42:44.319Z,63.80
2018-08-09T20:45:14.237Z,63.40
2018-08-09T20:47:42.707Z,64.40
2018-08-09T20:50:14.835Z,64.60
2018-08-09T20:52:44.195Z,65.40
2018-08-09T20:55:12.650Z,65.00
2018-08-09T20:57:45.013Z,65.10
2018-08-09T21:00:18.063Z,64.20
2018-08-09T21:02:48.039Z,65.50
2018-08-09T21:05:20.923Z,65.30
2018-08-09T21:08:05.718Z,65.30
2018-08-09T21:10:34.213Z,65.60
2018-08-09T21:13:02.650Z,65.50
2018-08-09T21:15:32.087Z,65.90
2018-08-09T21:18:00.721Z,65.90
2018-08-09T21:20:29.139Z,66.00
2018-08-09T21:22:57.616Z,65.50
2018-08-09T21:25:26.265Z,65.50
2018-08-09T21:27:54.834Z,65.80
2018-08-09T21:30:24.010Z,66.10
2018-08-09T21:32:52.780Z,66.00
2018-08-09T21:35:21.192Z,66.20
2018-08-09T21:37:49.676Z,66.70
2018-08-09T21:40:18.194Z,66.50
2018-08-09T21:42:46.587Z,66.50
2018-08-09T21:45:16.413Z,66.70
2018-08-09T21:47:44.965Z,67.10
2018-08-09T21:50:21.936Z,67.30
2018-08-09T21:52:50.428Z,67.60
2018-08-09T21:55:18.899Z,67.60
2018-08-09T21:57:47.801Z,67.80
2018-08-09T22:00:57.603Z,67.90
2018-08-09T22:03:28.175Z,68.00
2018-08-09T22:06:02.070Z,68.30
2018-08-09T22:08:36.019Z,68.60
2018-08-09T22:11:10.196Z,68.80
2018-08-09T22:13:44.011Z,68.90
2018-08-09T22:16:17.836Z,69.20
2018-08-09T22:18:51.590Z,69.20
2018-08-09T22:21:25.500Z,69.50
2018-08-09T22:23:54.007Z,70.20
2018-08-09T22:26:22.494Z,69.90
2018-08-09T22:28:50.984Z,70.10
2018-08-09T22:31:19.429Z,69.90
2018-08-09T22:33:47.946Z,70.10
2018-08-09T22:36:16.633Z,70.10
2018-08-09T22:38:44.986Z,70.30
2018-08-09T22:41:13.396Z,70.60
2018-08-09T22:43:41.831Z,71.00
2018-08-09T22:46:10.245Z,72.20
2018-08-09T22:48:38.651Z,72.80
2018-08-09T22:51:07.341Z,72.80
2018-08-09T22:53:35.794Z,73.10
2018-08-09T22:56:04.214Z,73.00
2018-08-09T22:58:32.658Z,72.50
2018-08-09T23:01:01.260Z,72.90
2018-08-09T23:03:29.686Z,72.80
2018-08-09T23:05:58.172Z,72.20
2018-08-09T23:08:26.591Z,71.70
2018-08-09T23:10:55.075Z,71.40
2018-08-09T23:13:23.547Z,71.30
2018-08-09T23:15:52.052Z,70.90
2018-08-09T23:18:20.609Z,70.90
2018-08-09T23:20:49.017Z,70.70
2018-08-09T23:23:17.478Z,71.00
2018-08-09T23:25:45.864Z,70.80
2018-08-09T23:28:14.461Z,70.40
2018-08-09T23:30:42.893Z,70.60
2018-08-09T23:33:11.289Z,70.80
2018-08-09T23:35:39.715Z,70.60
2018-08-09T23:38:08.192Z,70.30
2018-08-09T23:40:36.571Z,70.30
2018-08-09T23:43:05.052Z,70.30
2018-08-09T23:45:33.462Z,70.00
2018-08-09T23:48:01.949Z,69.80
2018-08-09T23:50:30.458Z,69.60
2018-08-09T23:52:58.946Z,69.70
2018-08-09T23:55:27.833Z,70.40
2018-08-09T23:57:56.246Z,70.10
